Wilson Maas — 8PSZ — position and weather

sailwx.info

Track history (hours):
 
Tides and Currents Weather Stations Pressure Air Temp Water Temp Dewpoint Dewpoint Depression Visibility Wind Speed Wind Dir Waves Ship Positions

Wilson Maas

Last reported at 2014-Oct-28 10:33 UTC. Time now 2014-Oct-30 16:02 UTC.
Position N 63°43' E 009°31'.

Length 78 m; draft 4 m.

Type: Cargo ship. MMSI: 314217000.

Date/timePositionNaut miles runAvg speedWind from/ knotsBaromVisibWave heightAir tempDewpointWater temp
2014-Oct-28 10:33N 63°43' E 009°31'9 8.8
2014-Oct-28 09:33N 63°36' E 009°19'  
2014-Oct-25 12:19N 55°22' E 006°45'7 9.1
2014-Oct-25 11:33N 55°16' E 006°48'9 9.0
2014-Oct-25 10:33N 55°08' E 006°55'9 8.7
2014-Oct-25 09:33N 54°60' E 007°00'9 8.6
2014-Oct-25 08:33N 54°51' E 007°06'26 8.8
2014-Oct-25 05:33N 54°26' E 007°19'9 9.3
2014-Oct-25 04:33N 54°18' E 007°25'10 9.6
2014-Oct-25 03:34N 54°09' E 007°32'10 9.6
2014-Oct-25 02:34N 54°01' E 007°40'19 9.4
2014-Oct-25 00:33N 53°50' E 008°06'10 9.7
2014-Oct-24 23:33N 53°43' E 008°17'8 8.5
2014-Oct-24 22:33N 53°37' E 008°28'7 6.9
2014-Oct-24 21:33N 53°31' E 008°32'8 7.8
2014-Oct-24 20:33N 53°23' E 008°30'1110.8
2014-Oct-24 19:32N 53°12' E 008°30'9 9.1
2014-Oct-24 18:33N 53°07' E 008°43'0 0.0
2014-Oct-24 17:33N 53°07' E 008°43'1 0.7
2014-Oct-24 16:33N 53°07' E 008°44'0 0.0
2014-Oct-24 15:33N 53°07' E 008°44'0 0.0
2014-Oct-24 14:33N 53°07' E 008°44'0 0.0
2014-Oct-24 13:33N 53°07' E 008°44'0 0.0
2014-Oct-24 12:33N 53°07' E 008°44'0 0.0
2014-Oct-24 11:33N 53°07' E 008°44'0 0.0
2014-Oct-24 10:33N 53°07' E 008°44'0 0.0
2014-Oct-24 09:33N 53°07' E 008°44'0 0.0
2014-Oct-24 08:33N 53°07' E 008°44'0 0.0
2014-Oct-24 07:33N 53°07' E 008°44'0 0.0
2014-Oct-24 06:33N 53°07' E 008°44'0 0.0
2014-Oct-24 05:33N 53°07' E 008°44'0 0.0
2014-Oct-24 04:33N 53°07' E 008°44'0 0.0
2014-Oct-24 03:33N 53°07' E 008°44'0 0.0
2014-Oct-24 02:33N 53°07' E 008°44'0 0.0
2014-Oct-24 01:33N 53°07' E 008°44'0 0.0
2014-Oct-24 00:33N 53°07' E 008°44'0 0.0
2014-Oct-23 23:33N 53°07' E 008°44'0 0.0
2014-Oct-23 22:34N 53°07' E 008°44'1 1.0
2014-Oct-23 21:34N 53°07' E 008°42'12 9.5
2014-Oct-23 20:20N 53°16' E 008°29'810.9
2014-Oct-23 19:33N 53°24' E 008°30'9 9.1
2014-Oct-23 18:34N 53°33' E 008°33'9 8.8
2014-Oct-23 17:34N 53°40' E 008°23'9 8.7
2014-Oct-23 16:34N 53°45' E 008°12'9 8.7
2014-Oct-23 15:33N 53°51' E 008°01'76 9.5
2014-Oct-23 07:31N 53°39' E 005°54'1010.4
2014-Oct-23 06:34N 53°36' E 005°38'1111.0
2014-Oct-23 05:34N 53°32' E 005°20'1111.3
2014-Oct-23 04:34N 53°28' E 005°03'1211.5
2014-Oct-23 03:33N 53°24' E 004°45'1110.7
2014-Oct-23 02:32N 53°14' E 004°36'60 8.4
2014-Oct-22 19:23N 52°20' E 003°52'5 6.5
2014-Oct-22 18:33N 52°15' E 003°53'7 7.3
2014-Oct-22 17:33N 52°08' E 003°55'7 7.4
2014-Oct-22 16:34N 52°01' E 004°00'1110.7
2014-Oct-22 15:33N 51°55' E 004°15'7 7.1
2014-Oct-22 14:34N 51°51' E 004°24'6 6.2
2014-Oct-22 13:33N 51°50' E 004°33'7 6.6
2014-Oct-22 12:33N 51°43' E 004°38'2 2.3
2014-Oct-22 11:33N 51°42' E 004°35'0 0.0
2014-Oct-22 10:33N 51°42' E 004°35'0 0.0
2014-Oct-22 09:06N 51°42' E 004°35'0 0.0
2014-Oct-22 06:33N 51°42' E 004°35'0 0.0
2014-Oct-22 05:12N 51°42' E 004°35'0 0.0
2014-Oct-22 04:27N 51°42' E 004°35'0 0.0
2014-Oct-22 02:30N 51°42' E 004°35'0 0.0
2014-Oct-22 01:31N 51°42' E 004°35'5 5.0
2014-Oct-22 00:33N 51°46' E 004°38'7 7.2
2014-Oct-21 23:33N 51°50' E 004°28'7 7.2
2014-Oct-21 22:33N 51°54' E 004°18'1110.7
2014-Oct-21 21:33N 51°59' E 004°03'9 9.1
2014-Oct-21 20:34N 52°03' E 003°49'9 9.1
2014-Oct-21 19:33N 52°12' E 003°46'12 8.3
2014-Oct-21 18:07N 52°24' E 003°47'5 6.4
2014-Oct-21 17:23N 52°27' E 003°52'6 7.3
2014-Oct-21 16:33N 52°33' E 003°54'96 6.4
2014-Oct-21 01:33N 54°03' E 004°53'19 9.6
2014-Oct-20 23:32N 54°22' E 004°60'9 9.4
2014-Oct-20 22:32N 54°31' E 005°03'  
Track history (hours):
 
Tides and Currents Weather Stations Pressure Air Temp Water Temp Dewpoint Dewpoint Depression Visibility Wind Speed Wind Dir Waves Ship Positions

Wilson Maas

Last reported at 2014-Oct-28 10:33 UTC. Time now 2014-Oct-30 16:02 UTC.
Position N 63°43' E 009°31'.

Length 78 m; draft 4 m.

Type: Cargo ship. MMSI: 314217000.

Date/timePositionNaut miles runAvg speedWind from/ knotsBaromVisibWave heightAir tempDewpointWater temp
2014-Oct-28 10:33N 63°43' E 009°31'9 8.8
2014-Oct-28 09:33N 63°36' E 009°19'  
2014-Oct-25 12:19N 55°22' E 006°45'7 9.1
2014-Oct-25 11:33N 55°16' E 006°48'9 9.0
2014-Oct-25 10:33N 55°08' E 006°55'9 8.7
2014-Oct-25 09:33N 54°60' E 007°00'9 8.6
2014-Oct-25 08:33N 54°51' E 007°06'26 8.8
2014-Oct-25 05:33N 54°26' E 007°19'9 9.3
2014-Oct-25 04:33N 54°18' E 007°25'10 9.6
2014-Oct-25 03:34N 54°09' E 007°32'10 9.6
2014-Oct-25 02:34N 54°01' E 007°40'19 9.4
2014-Oct-25 00:33N 53°50' E 008°06'10 9.7
2014-Oct-24 23:33N 53°43' E 008°17'8 8.5
2014-Oct-24 22:33N 53°37' E 008°28'7 6.9
2014-Oct-24 21:33N 53°31' E 008°32'8 7.8
2014-Oct-24 20:33N 53°23' E 008°30'1110.8
2014-Oct-24 19:32N 53°12' E 008°30'9 9.1
2014-Oct-24 18:33N 53°07' E 008°43'0 0.0
2014-Oct-24 17:33N 53°07' E 008°43'1 0.7
2014-Oct-24 16:33N 53°07' E 008°44'0 0.0
2014-Oct-24 15:33N 53°07' E 008°44'0 0.0
2014-Oct-24 14:33N 53°07' E 008°44'0 0.0
2014-Oct-24 13:33N 53°07' E 008°44'0 0.0
2014-Oct-24 12:33N 53°07' E 008°44'0 0.0
2014-Oct-24 11:33N 53°07' E 008°44'0 0.0
2014-Oct-24 10:33N 53°07' E 008°44'0 0.0
2014-Oct-24 09:33N 53°07' E 008°44'0 0.0
2014-Oct-24 08:33N 53°07' E 008°44'0 0.0
2014-Oct-24 07:33N 53°07' E 008°44'0 0.0
2014-Oct-24 06:33N 53°07' E 008°44'0 0.0
2014-Oct-24 05:33N 53°07' E 008°44'0 0.0
2014-Oct-24 04:33N 53°07' E 008°44'0 0.0
2014-Oct-24 03:33N 53°07' E 008°44'0 0.0
2014-Oct-24 02:33N 53°07' E 008°44'0 0.0
2014-Oct-24 01:33N 53°07' E 008°44'0 0.0
2014-Oct-24 00:33N 53°07' E 008°44'0 0.0
2014-Oct-23 23:33N 53°07' E 008°44'0 0.0
2014-Oct-23 22:34N 53°07' E 008°44'1 1.0
2014-Oct-23 21:34N 53°07' E 008°42'12 9.5
2014-Oct-23 20:20N 53°16' E 008°29'810.9
2014-Oct-23 19:33N 53°24' E 008°30'9 9.1
2014-Oct-23 18:34N 53°33' E 008°33'9 8.8
2014-Oct-23 17:34N 53°40' E 008°23'9 8.7
2014-Oct-23 16:34N 53°45' E 008°12'9 8.7
2014-Oct-23 15:33N 53°51' E 008°01'76 9.5
2014-Oct-23 07:31N 53°39' E 005°54'1010.4
2014-Oct-23 06:34N 53°36' E 005°38'1111.0
2014-Oct-23 05:34N 53°32' E 005°20'1111.3
2014-Oct-23 04:34N 53°28' E 005°03'1211.5
2014-Oct-23 03:33N 53°24' E 004°45'1110.7
2014-Oct-23 02:32N 53°14' E 004°36'60 8.4
2014-Oct-22 19:23N 52°20' E 003°52'5 6.5
2014-Oct-22 18:33N 52°15' E 003°53'7 7.3
2014-Oct-22 17:33N 52°08' E 003°55'7 7.4
2014-Oct-22 16:34N 52°01' E 004°00'1110.7
2014-Oct-22 15:33N 51°55' E 004°15'7 7.1
2014-Oct-22 14:34N 51°51' E 004°24'6 6.2
2014-Oct-22 13:33N 51°50' E 004°33'7 6.6
2014-Oct-22 12:33N 51°43' E 004°38'2 2.3
2014-Oct-22 11:33N 51°42' E 004°35'0 0.0
2014-Oct-22 10:33N 51°42' E 004°35'0 0.0
2014-Oct-22 09:06N 51°42' E 004°35'0 0.0
2014-Oct-22 06:33N 51°42' E 004°35'0 0.0
2014-Oct-22 05:12N 51°42' E 004°35'0 0.0
2014-Oct-22 04:27N 51°42' E 004°35'0 0.0
2014-Oct-22 02:30N 51°42' E 004°35'0 0.0
2014-Oct-22 01:31N 51°42' E 004°35'5 5.0
2014-Oct-22 00:33N 51°46' E 004°38'7 7.2
2014-Oct-21 23:33N 51°50' E 004°28'7 7.2
2014-Oct-21 22:33N 51°54' E 004°18'1110.7
2014-Oct-21 21:33N 51°59' E 004°03'9 9.1
2014-Oct-21 20:34N 52°03' E 003°49'9 9.1
2014-Oct-21 19:33N 52°12' E 003°46'12 8.3
2014-Oct-21 18:07N 52°24' E 003°47'5 6.4
2014-Oct-21 17:23N 52°27' E 003°52'6 7.3
2014-Oct-21 16:33N 52°33' E 003°54'96 6.4
2014-Oct-21 01:33N 54°03' E 004°53'19 9.6
2014-Oct-20 23:32N 54°22' E 004°60'9 9.4
2014-Oct-20 22:32N 54°31' E 005°03'  

Dump ship's entire track history